sensor_id;sensor_type;location;lat;lon;timestamp;pressure;altitude;pressure_sealevel;temperature;humidity
26823;BME280;14852;51.910;8.878;2022-08-01T00:00:26;99600.78;;;23.29;60.78
26823;BME280;14852;51.910;8.878;2022-08-01T00:02:52;99607.25;;;23.27;60.38
26823;BME280;14852;51.910;8.878;2022-08-01T00:05:18;99604.06;;;23.23;60.80
26823;BME280;14852;51.910;8.878;2022-08-01T00:07:44;99597.44;;;23.19;60.76
26823;BME280;14852;51.910;8.878;2022-08-01T00:10:14;99605.75;;;23.16;60.77
26823;BME280;14852;51.910;8.878;2022-08-01T00:12:41;99602.91;;;23.09;60.93
26823;BME280;14852;51.910;8.878;2022-08-01T00:15:10;99610.03;;;23.09;60.80
26823;BME280;14852;51.910;8.878;2022-08-01T00:17:36;99599.63;;;23.07;60.92
26823;BME280;14852;51.910;8.878;2022-08-01T00:20:05;99609.03;;;23.02;61.15
26823;BME280;14852;51.910;8.878;2022-08-01T00:22:32;99605.72;;;23.00;61.38
26823;BME280;14852;51.910;8.878;2022-08-01T00:24:58;99610.69;;;22.95;61.46
26823;BME280;14852;51.910;8.878;2022-08-01T00:27:24;99604.56;;;22.94;61.38
26823;BME280;14852;51.910;8.878;2022-08-01T00:29:49;99613.66;;;22.92;61.52
26823;BME280;14852;51.910;8.878;2022-08-01T00:32:15;99610.31;;;22.90;61.70
26823;BME280;14852;51.910;8.878;2022-08-01T00:34:41;99609.00;;;22.86;61.35
26823;BME280;14852;51.910;8.878;2022-08-01T00:37:07;99613.81;;;22.82;61.52
26823;BME280;14852;51.910;8.878;2022-08-01T00:39:33;99615.47;;;22.83;61.48
26823;BME280;14852;51.910;8.878;2022-08-01T00:42:00;99612.13;;;22.81;61.36
26823;BME280;14852;51.910;8.878;2022-08-01T00:44:26;99614.63;;;22.83;61.84
26823;BME280;14852;51.910;8.878;2022-08-01T00:46:52;99609.50;;;22.81;61.85
26823;BME280;14852;51.910;8.878;2022-08-01T00:49:18;99614.63;;;22.83;61.35
26823;BME280;14852;51.910;8.878;2022-08-01T00:51:44;99615.47;;;22.83;61.38
26823;BME280;14852;51.910;8.878;2022-08-01T00:54:09;99613.81;;;22.82;61.62
26823;BME280;14852;51.910;8.878;2022-08-01T00:56:35;99613.97;;;22.81;61.58
26823;BME280;14852;51.910;8.878;2022-08-01T00:59:03;99619.41;;;22.79;61.53
26823;BME280;14852;51.910;8.878;2022-08-01T01:01:29;99620.41;;;22.78;61.36
26823;BME280;14852;51.910;8.878;2022-08-01T01:03:55;99614.44;;;22.76;61.62
26823;BME280;14852;51.910;8.878;2022-08-01T01:15:04;99618.03;;;22.75;61.16
26823;BME280;14852;51.910;8.878;2022-08-01T01:18:02;99616.75;;;22.79;61.35
26823;BME280;14852;51.910;8.878;2022-08-01T01:20:40;99612.59;;;22.77;61.28
26823;BME280;14852;51.910;8.878;2022-08-01T01:26:52;99615.25;;;22.77;61.32
26823;BME280;14852;51.910;8.878;2022-08-01T01:29:31;99615.06;;;22.70;61.44
26823;BME280;14852;51.910;8.878;2022-08-01T01:32:12;99617.03;;;22.68;61.36
26823;BME280;14852;51.910;8.878;2022-08-01T01:34:44;99615.38;;;22.67;61.77
26823;BME280;14852;51.910;8.878;2022-08-01T01:37:15;99614.84;;;22.63;61.72
26823;BME280;14852;51.910;8.878;2022-08-01T01:39:42;99616.34;;;22.66;61.26
26823;BME280;14852;51.910;8.878;2022-08-01T01:42:10;99615.34;;;22.59;61.66
26823;BME280;14852;51.910;8.878;2022-08-01T01:44:37;99619.16;;;22.56;61.63
26823;BME280;14852;51.910;8.878;2022-08-01T01:47:04;99615.81;;;22.54;61.80
26823;BME280;14852;51.910;8.878;2022-08-01T01:49:32;99618.47;;;22.54;61.92
26823;BME280;14852;51.910;8.878;2022-08-01T01:51:59;99621.28;;;22.53;61.59
26823;BME280;14852;51.910;8.878;2022-08-01T01:54:32;99623.75;;;22.54;61.75
26823;BME280;14852;51.910;8.878;2022-08-01T01:57:00;99622.25;;;22.52;61.77
26823;BME280;14852;51.910;8.878;2022-08-01T01:59:30;99621.44;;;22.51;62.18
26823;BME280;14852;51.910;8.878;2022-08-01T02:02:01;99622.41;;;22.50;61.65
26823;BME280;14852;51.910;8.878;2022-08-01T02:04:28;99623.44;;;22.49;62.26
26823;BME280;14852;51.910;8.878;2022-08-01T02:06:56;99627.06;;;22.48;61.79
26823;BME280;14852;51.910;8.878;2022-08-01T02:09:23;99627.06;;;22.48;62.04
26823;BME280;14852;51.910;8.878;2022-08-01T02:11:53;99636.00;;;22.47;61.92
26823;BME280;14852;51.910;8.878;2022-08-01T02:14:20;99628.38;;;22.44;62.18
26823;BME280;14852;51.910;8.878;2022-08-01T02:16:50;99631.00;;;22.44;61.98
26823;BME280;14852;51.910;8.878;2022-08-01T02:19:19;99634.66;;;22.43;62.04
26823;BME280;14852;51.910;8.878;2022-08-01T02:21:57;99632.81;;;22.44;62.09
26823;BME280;14852;51.910;8.878;2022-08-01T02:27:07;99630.50;;;22.40;62.21
26823;BME280;14852;51.910;8.878;2022-08-01T02:30:20;99633.66;;;22.44;61.95
26823;BME280;14852;51.910;8.878;2022-08-01T02:32:59;99636.47;;;22.43;61.88
26823;BME280;14852;51.910;8.878;2022-08-01T02:35:29;99634.31;;;22.38;62.35
26823;BME280;14852;51.910;8.878;2022-08-01T02:37:58;99637.25;;;22.35;62.39
26823;BME280;14852;51.910;8.878;2022-08-01T02:40:28;99638.25;;;22.34;62.07
26823;BME280;14852;51.910;8.878;2022-08-01T02:42:56;99638.25;;;22.34;62.37
26823;BME280;14852;51.910;8.878;2022-08-01T02:45:26;99642.72;;;22.33;62.68
26823;BME280;14852;51.910;8.878;2022-08-01T02:48:00;99639.91;;;22.35;62.11
26823;BME280;14852;51.910;8.878;2022-08-01T02:50:28;99639.91;;;22.35;62.23
26823;BME280;14852;51.910;8.878;2022-08-01T02:52:55;99642.56;;;22.35;62.56
26823;BME280;14852;51.910;8.878;2022-08-01T02:55:22;99640.59;;;22.37;62.65
26823;BME280;14852;51.910;8.878;2022-08-01T02:57:50;99645.88;;;22.37;62.25
26823;BME280;14852;51.910;8.878;2022-08-01T03:00:17;99644.06;;;22.37;62.30
26823;BME280;14852;51.910;8.878;2022-08-01T03:02:44;99645.22;;;22.35;62.46
26823;BME280;14852;51.910;8.878;2022-08-01T03:05:12;99649.81;;;22.33;62.70
26823;BME280;14852;51.910;8.878;2022-08-01T03:07:40;99646.50;;;22.31;62.20
26823;BME280;14852;51.910;8.878;2022-08-01T03:10:07;99644.69;;;22.31;62.29
26823;BME280;14852;51.910;8.878;2022-08-01T03:12:34;99647.63;;;22.28;62.22
26823;BME280;14852;51.910;8.878;2022-08-01T03:15:02;99645.31;;;22.25;62.51
26823;BME280;14852;51.910;8.878;2022-08-01T03:17:30;99655.25;;;22.23;62.31
26823;BME280;14852;51.910;8.878;2022-08-01T03:19:59;99652.44;;;22.25;62.32
26823;BME280;14852;51.910;8.878;2022-08-01T03:22:27;99655.09;;;22.25;62.33
26823;BME280;14852;51.910;8.878;2022-08-01T03:24:56;99655.09;;;22.25;62.39
26823;BME280;14852;51.910;8.878;2022-08-01T03:27:23;99654.25;;;22.24;62.34
26823;BME280;14852;51.910;8.878;2022-08-01T03:29:51;99655.25;;;22.23;62.27
26823;BME280;14852;51.910;8.878;2022-08-01T03:32:21;99655.25;;;22.23;62.53
26823;BME280;14852;51.910;8.878;2022-08-01T03:34:48;99656.06;;;22.24;62.21
26823;BME280;14852;51.910;8.878;2022-08-01T03:37:33;99657.88;;;22.23;62.29
26823;BME280;14852;51.910;8.878;2022-08-01T03:40:25;99657.06;;;22.23;61.93
26823;BME280;14852;51.910;8.878;2022-08-01T03:42:59;99661.00;;;22.19;62.19
26823;BME280;14852;51.910;8.878;2022-08-01T03:45:34;99669.44;;;22.22;61.88
26823;BME280;14852;51.910;8.878;2022-08-01T03:48:08;99666.81;;;22.22;61.95
26823;BME280;14852;51.910;8.878;2022-08-01T03:50:35;99664.16;;;22.22;62.02
26823;BME280;14852;51.910;8.878;2022-08-01T03:53:04;99665.97;;;22.22;62.20
26823;BME280;14852;51.910;8.878;2022-08-01T03:55:33;99664.31;;;22.21;62.23
26823;BME280;14852;51.910;8.878;2022-08-01T03:58:00;99675.72;;;22.21;62.08
26823;BME280;14852;51.910;8.878;2022-08-01T04:00:27;99671.41;;;22.20;62.20
26823;BME280;14852;51.910;8.878;2022-08-01T04:02:53;99670.75;;;22.18;62.36
26823;BME280;14852;51.910;8.878;2022-08-01T04:05:19;99669.75;;;22.19;62.10
26823;BME280;14852;51.910;8.878;2022-08-01T04:07:48;99674.06;;;22.20;62.58
26823;BME280;14852;51.910;8.878;2022-08-01T04:10:16;99679.38;;;22.20;62.50
26823;BME280;14852;51.910;8.878;2022-08-01T04:12:42;99685.47;;;22.21;62.25
26823;BME280;14852;51.910;8.878;2022-08-01T04:15:08;99680.03;;;22.22;62.25
26823;BME280;14852;51.910;8.878;2022-08-01T04:17:34;99688.81;;;22.23;62.26
26823;BME280;14852;51.910;8.878;2022-08-01T04:20:00;99677.53;;;22.21;62.47
26823;BME280;14852;51.910;8.878;2022-08-01T04:22:26;99682.00;;;22.20;62.36
26823;BME280;14852;51.910;8.878;2022-08-01T04:24:55;99688.28;;;22.19;62.30
26823;BME280;14852;51.910;8.878;2022-08-01T04:27:28;99684.66;;;22.20;62.24
26823;BME280;14852;51.910;8.878;2022-08-01T04:29:57;99685.78;;;22.18;62.29
26823;BME280;14852;51.910;8.878;2022-08-01T04:32:26;99694.56;;;22.18;62.42
26823;BME280;14852;51.910;8.878;2022-08-01T04:34:54;99698.56;;;22.22;62.49
26823;BME280;14852;51.910;8.878;2022-08-01T04:37:23;99686.16;;;22.23;62.70
26823;BME280;14852;51.910;8.878;2022-08-01T04:39:49;99703.72;;;22.24;62.19
26823;BME280;14852;51.910;8.878;2022-08-01T04:42:16;99702.88;;;22.23;62.19
26823;BME280;14852;51.910;8.878;2022-08-01T04:44:42;99697.44;;;22.25;62.39
26823;BME280;14852;51.910;8.878;2022-08-01T04:47:09;99703.06;;;22.30;62.49
26823;BME280;14852;51.910;8.878;2022-08-01T04:49:35;99708.06;;;22.33;62.32
26823;BME280;14852;51.910;8.878;2022-08-01T04:52:02;99714.53;;;22.38;62.12
26823;BME280;14852;51.910;8.878;2022-08-01T04:54:30;99713.25;;;22.43;62.45
26823;BME280;14852;51.910;8.878;2022-08-01T04:56:59;99714.75;;;22.45;62.34
26823;BME280;14852;51.910;8.878;2022-08-01T04:59:29;99717.09;;;22.48;61.77
26823;BME280;14852;51.910;8.878;2022-08-01T05:02:09;99721.41;;;22.49;62.35
26823;BME280;14852;51.910;8.878;2022-08-01T05:04:36;99721.22;;;22.51;61.83
26823;BME280;14852;51.910;8.878;2022-08-01T05:07:02;99723.72;;;22.52;62.23
26823;BME280;14852;51.910;8.878;2022-08-01T05:09:28;99719.78;;;22.56;61.77
26823;BME280;14852;51.910;8.878;2022-08-01T05:11:54;99723.94;;;22.59;61.73
26823;BME280;14852;51.910;8.878;2022-08-01T05:14:20;99716.13;;;22.57;62.12
26823;BME280;14852;51.910;8.878;2022-08-01T05:16:46;99723.78;;;22.60;61.94
26823;BME280;14852;51.910;8.878;2022-08-01T05:19:12;99720.63;;;22.65;61.85
26823;BME280;14852;51.910;8.878;2022-08-01T05:21:38;99723.81;;;22.68;61.83
26823;BME280;14852;51.910;8.878;2022-08-01T05:24:05;99719.03;;;22.72;61.72
26823;BME280;14852;51.910;8.878;2022-08-01T05:26:31;99717.75;;;22.76;61.53
26823;BME280;14852;51.910;8.878;2022-08-01T05:28:56;99720.59;;;22.83;61.64
26823;BME280;14852;51.910;8.878;2022-08-01T05:31:22;99723.59;;;22.88;61.48
26823;BME280;14852;51.910;8.878;2022-08-01T05:33:48;99721.97;;;22.95;61.31
26823;BME280;14852;51.910;8.878;2022-08-01T05:36:13;99724.94;;;23.00;61.62
26823;BME280;14852;51.910;8.878;2022-08-01T05:38:39;99731.44;;;23.05;61.48
26823;BME280;14852;51.910;8.878;2022-08-01T05:41:05;99739.25;;;23.07;61.24
26823;BME280;14852;51.910;8.878;2022-08-01T05:43:31;99739.25;;;23.07;61.63
26823;BME280;14852;51.910;8.878;2022-08-01T05:45:57;99735.41;;;23.09;61.63
26823;BME280;14852;51.910;8.878;2022-08-01T05:48:24;99749.19;;;23.13;61.41
26823;BME280;14852;51.910;8.878;2022-08-01T05:50:50;99734.13;;;23.14;61.78
26823;BME280;14852;51.910;8.878;2022-08-01T05:53:16;99739.09;;;23.17;61.56
26823;BME280;14852;51.910;8.878;2022-08-01T05:55:42;99739.25;;;23.15;61.75
26823;BME280;14852;51.910;8.878;2022-08-01T05:58:07;99750.69;;;23.16;61.77
26823;BME280;14852;51.910;8.878;2022-08-01T06:00:33;99751.69;;;23.15;61.95
26823;BME280;14852;51.910;8.878;2022-08-01T06:02:59;99744.72;;;23.14;61.52
26823;BME280;14852;51.910;8.878;2022-08-01T06:05:25;99757.97;;;23.14;61.48
26823;BME280;14852;51.910;8.878;2022-08-01T06:07:51;99761.59;;;23.13;61.97
26823;BME280;14852;51.910;8.878;2022-08-01T06:10:16;99755.16;;;23.15;61.67
26823;BME280;14852;51.910;8.878;2022-08-01T06:12:42;99762.97;;;23.17;61.60
26823;BME280;14852;51.910;8.878;2022-08-01T06:15:08;99764.28;;;23.21;61.99
26823;BME280;14852;51.910;8.878;2022-08-01T06:17:34;99767.44;;;23.24;61.38
26823;BME280;14852;51.910;8.878;2022-08-01T06:20:00;99764.97;;;23.31;61.77
26823;BME280;14852;51.910;8.878;2022-08-01T06:22:26;99764.66;;;23.34;61.64
26823;BME280;14852;51.910;8.878;2022-08-01T06:24:52;99765.84;;;23.39;61.56
26823;BME280;14852;51.910;8.878;2022-08-01T06:27:17;99759.19;;;23.43;61.27
26823;BME280;14852;51.910;8.878;2022-08-01T06:29:43;99770.38;;;23.55;61.45
26823;BME280;14852;51.910;8.878;2022-08-01T06:32:09;99772.53;;;23.68;60.97
26823;BME280;14852;51.910;8.878;2022-08-01T06:34:35;99775.03;;;23.77;61.02
26823;BME280;14852;51.910;8.878;2022-08-01T06:37:01;99770.91;;;23.91;60.91
26823;BME280;14852;51.910;8.878;2022-08-01T06:39:27;99776.41;;;24.06;60.54
26823;BME280;14852;51.910;8.878;2022-08-01T06:41:53;99767.94;;;24.18;59.92
26823;BME280;14852;51.910;8.878;2022-08-01T06:46:53;99764.13;;;24.21;59.63
26823;BME280;14852;51.910;8.878;2022-08-01T06:49:18;99763.44;;;24.19;60.23
26823;BME280;14852;51.910;8.878;2022-08-01T06:51:44;99768.59;;;24.21;60.19
26823;BME280;14852;51.910;8.878;2022-08-01T06:54:10;99771.59;;;24.26;60.16
26823;BME280;14852;51.910;8.878;2022-08-01T06:56:36;99776.91;;;24.34;59.62
26823;BME280;14852;51.910;8.878;2022-08-01T06:59:01;99767.28;;;24.33;59.99
26823;BME280;14852;51.910;8.878;2022-08-01T07:01:28;99771.59;;;24.34;59.95
26823;BME280;14852;51.910;8.878;2022-08-01T07:03:54;99765.59;;;24.40;60.23
26823;BME280;14852;51.910;8.878;2022-08-01T07:06:22;99766.59;;;24.55;59.56
26823;BME280;14852;51.910;8.878;2022-08-01T07:08:48;99758.59;;;24.63;59.84
26823;BME280;14852;51.910;8.878;2022-08-01T07:11:14;99770.84;;;24.72;59.47
26823;BME280;14852;51.910;8.878;2022-08-01T07:13:39;99767.50;;;24.78;59.62
26823;BME280;14852;51.910;8.878;2022-08-01T07:16:05;99760.03;;;24.74;59.19
26823;BME280;14852;51.910;8.878;2022-08-01T07:18:31;99762.56;;;24.67;59.78
26823;BME280;14852;51.910;8.878;2022-08-01T07:20:57;99765.06;;;24.69;59.43
26823;BME280;14852;51.910;8.878;2022-08-01T07:23:22;99761.53;;;24.76;59.83
26823;BME280;14852;51.910;8.878;2022-08-01T07:25:48;99771.97;;;24.94;59.04
26823;BME280;14852;51.910;8.878;2022-08-01T07:28:16;99768.59;;;25.08;59.02
26823;BME280;14852;51.910;8.878;2022-08-01T07:30:41;99772.19;;;25.15;58.72
26823;BME280;14852;51.910;8.878;2022-08-01T07:33:09;99773.22;;;25.14;59.00
26823;BME280;14852;51.910;8.878;2022-08-01T07:35:36;99768.06;;;25.13;58.58
26823;BME280;14852;51.910;8.878;2022-08-01T07:38:05;99778.38;;;25.08;58.62
26823;BME280;14852;51.910;8.878;2022-08-01T07:40:30;99776.38;;;25.10;58.36
26823;BME280;14852;51.910;8.878;2022-08-01T07:42:56;99771.41;;;25.15;58.52
26823;BME280;14852;51.910;8.878;2022-08-01T07:45:22;99783.16;;;25.20;58.25
26823;BME280;14852;51.910;8.878;2022-08-01T07:47:48;99784.75;;;25.38;58.23
26823;BME280;14852;51.910;8.878;2022-08-01T07:50:15;99787.63;;;25.51;57.62
26823;BME280;14852;51.910;8.878;2022-08-01T07:52:42;99790.78;;;25.54;57.06
26823;BME280;14852;51.910;8.878;2022-08-01T07:55:09;99796.28;;;25.53;57.61
26823;BME280;14852;51.910;8.878;2022-08-01T07:57:35;99793.91;;;25.35;57.57
26823;BME280;14852;51.910;8.878;2022-08-01T08:00:04;99792.66;;;25.15;58.00
26823;BME280;14852;51.910;8.878;2022-08-01T08:02:30;99808.50;;;24.92;58.35
26823;BME280;14852;51.910;8.878;2022-08-01T08:04:56;99809.19;;;24.70;58.56
26823;BME280;14852;51.910;8.878;2022-08-01T08:07:21;99816.53;;;24.60;58.54
26823;BME280;14852;51.910;8.878;2022-08-01T08:09:47;99816.06;;;24.56;58.43
26823;BME280;14852;51.910;8.878;2022-08-01T08:12:13;99812.75;;;24.54;58.62
26823;BME280;14852;51.910;8.878;2022-08-01T08:14:39;99817.38;;;24.60;58.86
26823;BME280;14852;51.910;8.878;2022-08-01T08:17:05;99814.88;;;24.67;58.46
26823;BME280;14852;51.910;8.878;2022-08-01T08:19:31;99816.34;;;24.69;58.56
26823;BME280;14852;51.910;8.878;2022-08-01T08:21:59;99821.31;;;24.72;58.07
26823;BME280;14852;51.910;8.878;2022-08-01T08:24:26;99815.00;;;24.81;58.40
26823;BME280;14852;51.910;8.878;2022-08-01T08:26:58;99822.28;;;24.96;58.07
26823;BME280;14852;51.910;8.878;2022-08-01T08:29:25;99817.88;;;25.19;57.57
26823;BME280;14852;51.910;8.878;2022-08-01T08:31:55;99814.38;;;25.57;56.38
26823;BME280;14852;51.910;8.878;2022-08-01T08:34:22;99825.97;;;25.73;56.28
26823;BME280;14852;51.910;8.878;2022-08-01T08:36:49;99819.63;;;25.96;56.09
26823;BME280;14852;51.910;8.878;2022-08-01T08:39:15;99813.31;;;26.58;54.62
26823;BME280;14852;51.910;8.878;2022-08-01T08:41:41;99810.03;;;28.51;50.93
26823;BME280;14852;51.910;8.878;2022-08-01T08:44:09;99807.28;;;30.35;47.16
26823;BME280;14852;51.910;8.878;2022-08-01T08:46:49;99796.44;;;31.20;45.31
26823;BME280;14852;51.910;8.878;2022-08-01T08:49:20;99795.84;;;31.12;45.93
26823;BME280;14852;51.910;8.878;2022-08-01T08:51:49;99801.63;;;31.02;45.96
26823;BME280;14852;51.910;8.878;2022-08-01T08:54:16;99811.84;;;30.54;47.76
26823;BME280;14852;51.910;8.878;2022-08-01T08:56:43;99808.31;;;30.07;48.46
26823;BME280;14852;51.910;8.878;2022-08-01T08:59:12;99816.44;;;29.60;49.47
26823;BME280;14852;51.910;8.878;2022-08-01T09:01:40;99817.13;;;29.27;49.97
26823;BME280;14852;51.910;8.878;2022-08-01T09:04:06;99819.66;;;29.01;50.92
26823;BME280;14852;51.910;8.878;2022-08-01T09:06:32;99820.31;;;29.09;50.22
26823;BME280;14852;51.910;8.878;2022-08-01T09:08:59;99818.16;;;29.33;50.02
26823;BME280;14852;51.910;8.878;2022-08-01T09:11:25;99823.16;;;29.42;49.46
26823;BME280;14852;51.910;8.878;2022-08-01T09:14:13;99830.84;;;29.59;50.12
26823;BME280;14852;51.910;8.878;2022-08-01T09:16:44;99828.56;;;29.56;49.52
26823;BME280;14852;51.910;8.878;2022-08-01T09:21:39;99833.72;;;29.57;49.20
26823;BME280;14852;51.910;8.878;2022-08-01T09:24:15;99833.56;;;29.78;49.29
26823;BME280;14852;51.910;8.878;2022-08-01T09:26:41;99840.06;;;30.04;48.45
26823;BME280;14852;51.910;8.878;2022-08-01T09:29:16;99838.22;;;30.17;47.38
26823;BME280;14852;51.910;8.878;2022-08-01T09:31:44;99846.47;;;30.22;47.66
26823;BME280;14852;51.910;8.878;2022-08-01T09:34:10;99847.69;;;30.13;47.60
26823;BME280;14852;51.910;8.878;2022-08-01T09:36:59;99849.56;;;30.39;47.77
26823;BME280;14852;51.910;8.878;2022-08-01T09:39:27;99852.47;;;30.64;46.69
26823;BME280;14852;51.910;8.878;2022-08-01T09:41:54;99848.34;;;30.75;46.85
26823;BME280;14852;51.910;8.878;2022-08-01T09:44:41;99847.91;;;30.84;47.01
26823;BME280;14852;51.910;8.878;2022-08-01T09:47:07;99849.56;;;30.79;46.71
26823;BME280;14852;51.910;8.878;2022-08-01T09:49:35;99842.53;;;30.84;46.46
26823;BME280;14852;51.910;8.878;2022-08-01T09:52:20;99850.16;;;30.94;46.73
26823;BME280;14852;51.910;8.878;2022-08-01T09:55:03;99842.56;;;30.78;46.07
26823;BME280;14852;51.910;8.878;2022-08-01T09:57:29;99849.13;;;30.36;46.17
26823;BME280;14852;51.910;8.878;2022-08-01T09:59:58;99844.78;;;30.02;46.83
26823;BME280;14852;51.910;8.878;2022-08-01T10:02:38;99853.16;;;29.72;47.54
26823;BME280;14852;51.910;8.878;2022-08-01T10:05:08;99855.28;;;29.42;47.61
26823;BME280;14852;51.910;8.878;2022-08-01T10:07:36;99853.97;;;29.32;47.67
26823;BME280;14852;51.910;8.878;2022-08-01T10:10:20;99858.03;;;29.21;47.45
26823;BME280;14852;51.910;8.878;2022-08-01T10:12:46;99855.19;;;29.23;46.94
26823;BME280;14852;51.910;8.878;2022-08-01T10:15:16;99855.25;;;29.36;46.75
26823;BME280;14852;51.910;8.878;2022-08-01T10:18:02;99856.16;;;29.56;46.73
26823;BME280;14852;51.910;8.878;2022-08-01T10:20:32;99857.03;;;29.70;46.39
26823;BME280;14852;51.910;8.878;2022-08-01T10:23:01;99858.47;;;29.66;46.71
26823;BME280;14852;51.910;8.878;2022-08-01T10:25:33;99861.88;;;29.40;46.43
26823;BME280;14852;51.910;8.878;2022-08-01T10:28:02;99856.34;;;29.07;47.04
26823;BME280;14852;51.910;8.878;2022-08-01T10:30:31;99862.81;;;28.91;47.31
26823;BME280;14852;51.910;8.878;2022-08-01T10:32:57;99858.31;;;28.92;47.23
26823;BME280;14852;51.910;8.878;2022-08-01T10:35:23;99857.56;;;29.04;46.58
26823;BME280;14852;51.910;8.878;2022-08-01T10:37:49;99854.69;;;29.06;46.19
26823;BME280;14852;51.910;8.878;2022-08-01T10:40:16;99861.53;;;29.22;46.02
26823;BME280;14852;51.910;8.878;2022-08-01T10:42:44;99858.88;;;29.22;46.10
26823;BME280;14852;51.910;8.878;2022-08-01T10:45:13;99866.59;;;29.03;46.50
26823;BME280;14852;51.910;8.878;2022-08-01T10:50:34;99859.88;;;28.79;46.99
26823;BME280;14852;51.910;8.878;2022-08-01T10:53:19;99857.31;;;28.71;46.98
26823;BME280;14852;51.910;8.878;2022-08-01T11:01:25;99859.50;;;28.61;47.06
26823;BME280;14852;51.910;8.878;2022-08-01T11:04:07;99852.50;;;28.60;47.01
26823;BME280;14852;51.910;8.878;2022-08-01T11:09:05;99861.03;;;28.77;46.75
26823;BME280;14852;51.910;8.878;2022-08-01T11:11:31;99852.97;;;28.98;46.33
26823;BME280;14852;51.910;8.878;2022-08-01T11:14:01;99846.31;;;29.22;45.78
26823;BME280;14852;51.910;8.878;2022-08-01T11:16:29;99853.03;;;29.39;45.52
26823;BME280;14852;51.910;8.878;2022-08-01T11:18:55;99846.72;;;29.53;45.19
26823;BME280;14852;51.910;8.878;2022-08-01T11:21:21;99852.31;;;29.65;44.74
26823;BME280;14852;51.910;8.878;2022-08-01T11:23:51;99846.53;;;29.68;44.74
26823;BME280;14852;51.910;8.878;2022-08-01T11:26:20;99856.22;;;29.69;44.46
26823;BME280;14852;51.910;8.878;2022-08-01T11:29:14;99853.28;;;29.58;44.46
26823;BME280;14852;51.910;8.878;2022-08-01T11:31:41;99858.72;;;29.30;44.90
26823;BME280;14852;51.910;8.878;2022-08-01T11:34:06;99860.25;;;29.11;45.13
26823;BME280;14852;51.910;8.878;2022-08-01T11:36:32;99867.63;;;29.02;45.56
26823;BME280;14852;51.910;8.878;2022-08-01T11:39:17;99864.09;;;28.95;45.44
26823;BME280;14852;51.910;8.878;2022-08-01T11:41:44;99875.09;;;28.79;45.35
26823;BME280;14852;51.910;8.878;2022-08-01T11:44:20;99866.94;;;28.66;45.43
26823;BME280;14852;51.910;8.878;2022-08-01T11:47:06;99873.31;;;28.43;45.95
26823;BME280;14852;51.910;8.878;2022-08-01T11:52:11;99882.47;;;27.92;47.30
26823;BME280;14852;51.910;8.878;2022-08-01T11:54:41;99880.22;;;27.59;48.35
26823;BME280;14852;51.910;8.878;2022-08-01T11:57:14;99888.13;;;27.38;49.00
26823;BME280;14852;51.910;8.878;2022-08-01T11:59:50;99890.53;;;27.18;49.00
26823;BME280;14852;51.910;8.878;2022-08-01T12:05:05;99897.63;;;26.96;49.79
26823;BME280;14852;51.910;8.878;2022-08-01T12:07:33;99898.47;;;26.89;50.06
26823;BME280;14852;51.910;8.878;2022-08-01T12:10:12;99895.81;;;26.89;49.59
26823;BME280;14852;51.910;8.878;2022-08-01T12:15:13;99895.97;;;26.73;50.15
26823;BME280;14852;51.910;8.878;2022-08-01T12:20:14;99905.91;;;26.64;50.40
26823;BME280;14852;51.910;8.878;2022-08-01T12:22:41;99908.16;;;26.52;50.65
26823;BME280;14852;51.910;8.878;2022-08-01T12:25:11;99911.59;;;26.38;50.57
26823;BME280;14852;51.910;8.878;2022-08-01T12:27:39;99915.66;;;26.26;51.38
26823;BME280;14852;51.910;8.878;2022-08-01T12:30:08;99917.53;;;26.17;51.62
26823;BME280;14852;51.910;8.878;2022-08-01T12:32:37;99920.41;;;26.08;51.83
26823;BME280;14852;51.910;8.878;2022-08-01T12:37:44;99926.13;;;25.96;51.52
26823;BME280;14852;51.910;8.878;2022-08-01T12:40:15;99936.19;;;25.86;52.37
26823;BME280;14852;51.910;8.878;2022-08-01T12:42:43;99933.28;;;25.65;52.02
26823;BME280;14852;51.910;8.878;2022-08-01T12:45:16;99933.66;;;25.46;52.65
26823;BME280;14852;51.910;8.878;2022-08-01T12:47:43;99941.03;;;25.36;52.83
26823;BME280;14852;51.910;8.878;2022-08-01T12:50:19;99943.31;;;25.39;52.35
26823;BME280;14852;51.910;8.878;2022-08-01T12:52:46;99943.50;;;25.37;53.35
26823;BME280;14852;51.910;8.878;2022-08-01T12:55:24;99941.16;;;25.42;52.58
26823;BME280;14852;51.910;8.878;2022-08-01T12:58:11;99937.00;;;25.48;52.37
26823;BME280;14852;51.910;8.878;2022-08-01T13:00:40;99923.53;;;25.49;52.65
26823;BME280;14852;51.910;8.878;2022-08-01T13:03:14;99932.63;;;25.55;52.32
26823;BME280;14852;51.910;8.878;2022-08-01T13:05:51;99943.44;;;25.70;52.00
26823;BME280;14852;51.910;8.878;2022-08-01T13:08:22;99928.25;;;25.78;52.08
26823;BME280;14852;51.910;8.878;2022-08-01T13:10:49;99931.66;;;25.95;51.69
26823;BME280;14852;51.910;8.878;2022-08-01T13:13:18;99933.03;;;26.14;52.31
26823;BME280;14852;51.910;8.878;2022-08-01T13:15:45;99942.47;;;26.24;51.61
26823;BME280;14852;51.910;8.878;2022-08-01T13:18:29;99939.56;;;26.42;51.81
26823;BME280;14852;51.910;8.878;2022-08-01T13:21:19;99936.56;;;26.60;51.68
26823;BME280;14852;51.910;8.878;2022-08-01T13:26:45;99938.28;;;26.98;50.63
26823;BME280;14852;51.910;8.878;2022-08-01T13:29:17;99933.09;;;27.12;50.68
26823;BME280;14852;51.910;8.878;2022-08-01T13:31:43;99937.81;;;27.24;50.65
26823;BME280;14852;51.910;8.878;2022-08-01T13:34:10;99932.03;;;27.35;50.63
26823;BME280;14852;51.910;8.878;2022-08-01T13:36:37;99925.66;;;27.36;50.55
26823;BME280;14852;51.910;8.878;2022-08-01T13:39:05;99923.41;;;27.33;50.98
26823;BME280;14852;51.910;8.878;2022-08-01T13:41:51;99924.47;;;27.24;50.76
26823;BME280;14852;51.910;8.878;2022-08-01T13:44:17;99930.25;;;27.13;50.59
26823;BME280;14852;51.910;8.878;2022-08-01T13:46:43;99942.69;;;27.06;51.37
26823;BME280;14852;51.910;8.878;2022-08-01T13:49:11;99945.13;;;26.93;51.06
26823;BME280;14852;51.910;8.878;2022-08-01T13:51:38;99952.13;;;26.71;51.15
26823;BME280;14852;51.910;8.878;2022-08-01T13:54:05;99953.09;;;26.55;51.27
26823;BME280;14852;51.910;8.878;2022-08-01T13:56:31;99949.38;;;26.42;51.47